Accueil
METAR-TAF:

METAR-TAF

Aéroports :

Liège, Belgique

Aéroport de Liège

latitude: 50-39N, longitude: 005-27E, altitude: 186 m

Observation

Le bulletin a été fait il y a 19 minutes, à 06:20 UTC
Vent 10 kt de sud-ouest
Température 15°C
Humidité 88%
Pression 1017 hPa
Visibilité: 8000 m
Nuages épars à une hauteur de 600 ft

METAR: EBLG 240620Z 23010KT 8000 SCT006 15/13 Q1017 TEMPO BKN006

Heure: 08:39 (06:39 UTC)

Prévision

Le bulletin a été fait il y a 1 heure et 29 minutes, à 05:10 UTC
Prévision valable du 24 à 06 UTC au 25 à 12 UTC
Vent 7 kt de ouest/sud-ouest
Visibilité 10 km ou plus
Nuages épars à une hauteur de 2500 ft
Probabilité 40% :
Temporairement
du 24 à 06 UTC au 24 à 07 UTC
Nuages fragmentés à une hauteur de 600 ft

TAF: EBLG 240510Z 2406/2512 25007KT 9999 SCT025 PROB40 TEMPO 2406/2407 BKN006

Observations et prévisions météorologiques de plus de 4000 aéroports (messages METAR et TAF).

Les stations disponibles sont représentées par des disques jaunes et rouges sur la carte.

Passer la souris dessus pour voir le nom de la station.

Cliquer dessus pour voir les observations et prévisions météorologiques.

Pour changer de carte: cliquez sur les boutons verts avec une croix noire pour zoomer, sur le bouton vert avec un tiret pour effectuer un zoom arrière, ou sur les flèches vertes pour les cartes adjacentes.


METAR-TAF: